Time;durP1;ratioP1;P1;durP2;ratioP2;P2;SDS_P1;SDS_P2;PMS_P1;PMS_P2;Temp;Humidity;BMP_temperature;BMP_pressure;BME280_temperature;BME280_humidity;BME280_pressure;Samples;Min_cycle;Max_cycle;Signal;HPM_P1;HPM_P2
2022/11/25 00:00:10;;;;;;;19.63;8.48;;;;;;;-0.32;100.00;95818.06;1034523;28;20136;-70
2022/11/25 00:00:40;;;;;;;21.02;8.66;;;;;;;-0.34;100.00;95822.63;1034357;28;20526;-70
2022/11/25 00:01:18;;;;;;;16.85;8.60;;;;;;;-0.37;100.00;95822.22;1035001;28;20019;-70
2022/11/25 00:01:50;;;;;;;25.56;9.40;;;;;;;-0.37;100.00;95823.03;1040447;28;20064;-69
2022/11/25 00:02:21;;;;;;;24.92;9.42;;;;;;;-0.39;100.00;95825.00;1041258;28;20033;-68
2022/11/25 00:02:51;;;;;;;19.25;7.88;;;;;;;-0.42;100.00;95825.38;1039746;28;20017;-69
2022/11/25 00:03:22;;;;;;;17.08;9.30;;;;;;;-0.51;100.00;95816.19;1039644;28;20017;-69
2022/11/25 00:03:54;;;;;;;20.92;8.93;;;;;;;-0.43;100.00;95823.78;1036466;28;20009;-70
2022/11/25 00:04:24;;;;;;;24.32;9.90;;;;;;;-0.48;100.00;95819.19;1035363;28;20026;-70
2022/11/25 00:04:55;;;;;;;20.63;8.98;;;;;;;-0.48;100.00;95821.75;1030953;28;20105;-71
2022/11/25 00:05:27;;;;;;;20.02;8.80;;;;;;;-0.44;100.00;95827.31;1032691;28;20030;-68
2022/11/25 00:06:25;;;;;;;25.46;10.16;;;;;;;-0.45;100.00;95823.16;1039213;28;20777;-69
2022/11/25 00:06:55;;;;;;;16.56;8.02;;;;;;;-0.44;100.00;95832.47;1040971;28;20518;-68
2022/11/25 00:07:26;;;;;;;21.98;9.38;;;;;;;-0.49;100.00;95830.50;1040228;28;20024;-70
2022/11/25 00:07:56;;;;;;;24.73;10.52;;;;;;;-0.54;100.00;95821.72;1034206;28;20034;-70
2022/11/25 00:08:27;;;;;;;23.38;9.80;;;;;;;-0.49;100.00;95834.84;1032219;28;20021;-69
2022/11/25 00:09:02;;;;;;;22.20;10.50;;;;;;;-0.50;100.00;95834.06;1029593;28;20483;-69
2022/11/25 00:09:33;;;;;;;20.88;10.38;;;;;;;-0.49;100.00;95834.84;1023460;28;20043;-70
2022/11/25 00:10:04;;;;;;;23.67;10.57;;;;;;;-0.49;100.00;95840.00;1030808;28;20030;-69
2022/11/25 00:10:35;;;;;;;20.56;9.84;;;;;;;-0.51;100.00;95834.22;1030808;28;20027;-68
2022/11/25 00:11:05;;;;;;;23.88;9.85;;;;;;;-0.51;100.00;95827.28;1031149;28;20022;-69
2022/11/25 00:11:37;;;;;;;18.63;8.35;;;;;;;-0.52;100.00;95822.34;1030119;28;20597;-69
2022/11/25 00:12:07;;;;;;;22.54;9.26;;;;;;;-0.51;100.00;95824.72;1026261;28;20066;-69
2022/11/25 00:12:37;;;;;;;21.13;10.10;;;;;;;-0.44;100.00;95835.06;1029587;28;20065;-70
2022/11/25 00:13:08;;;;;;;18.38;8.52;;;;;;;-0.43;100.00;95836.69;1026076;28;20023;-69
2022/11/25 00:13:39;;;;;;;15.02;7.75;;;;;;;-0.46;100.00;95829.31;1029510;28;20022;-69
2022/11/25 00:14:11;;;;;;;14.73;8.02;;;;;;;-0.46;100.00;95834.47;1027454;28;20029;-69
2022/11/25 00:14:41;;;;;;;15.84;8.30;;;;;;;-0.44;100.00;95826.53;1026012;28;20019;-69
2022/11/25 00:15:11;;;;;;;18.58;8.85;;;;;;;-0.44;100.00;95832.47;1026096;28;20027;-70
2022/11/25 00:15:42;;;;;;;17.08;8.55;;;;;;;-0.46;100.00;95831.09;1026985;28;20919;-70
2022/11/25 00:16:14;;;;;;;13.73;7.57;;;;;;;-0.49;100.00;95827.13;1038337;28;20032;-69
2022/11/25 00:16:44;;;;;;;17.38;7.18;;;;;;;-0.46;100.00;95828.53;1042353;28;20099;-70
2022/11/25 00:17:15;;;;;;;18.20;7.28;;;;;;;-0.47;100.00;95830.28;1042260;28;20087;-69
2022/11/25 00:17:45;;;;;;;15.65;7.13;;;;;;;-0.51;100.00;95821.34;1041984;28;20013;-69
2022/11/25 00:18:16;;;;;;;14.70;8.00;;;;;;;-0.48;100.00;95831.28;1042065;28;20021;-69
2022/11/25 00:18:48;;;;;;;16.33;7.35;;;;;;;-0.51;100.00;95829.88;1042361;28;20025;-69
2022/11/25 00:19:18;;;;;;;14.80;7.46;;;;;;;-0.49;100.00;95821.97;1034724;28;20065;-69
2022/11/25 00:19:49;;;;;;;18.95;6.95;;;;;;;-0.49;100.00;95827.13;1035723;28;20037;-69
2022/11/25 00:20:21;;;;;;;18.62;7.30;;;;;;;-0.63;100.00;95803.06;1038021;28;20025;-70
2022/11/25 00:20:51;;;;;;;17.88;7.02;;;;;;;-0.52;100.00;95827.50;1039384;28;20030;-69
2022/11/25 00:21:23;;;;;;;11.48;6.50;;;;;;;-0.51;100.00;95823.94;1040713;28;20026;-69
2022/11/25 00:21:54;;;;;;;14.10;5.84;;;;;;;-0.45;100.00;95825.75;1039017;28;20517;-70
2022/11/25 00:22:24;;;;;;;17.90;7.85;;;;;;;-0.47;100.00;95830.28;1034225;28;20029;-69
2022/11/25 00:22:55;;;;;;;10.23;6.10;;;;;;;-0.41;100.00;95826.94;1035292;28;20030;-70
2022/11/25 00:23:25;;;;;;;12.80;5.65;;;;;;;-0.27;100.00;95828.63;1033085;28;20025;-69
2022/11/25 00:23:58;;;;;;;12.40;5.90;;;;;;;-0.28;100.00;95827.00;1029981;28;20034;-70
2022/11/25 00:24:28;;;;;;;13.46;6.58;;;;;;;-0.29;100.00;95824.63;1031282;28;20561;-70
2022/11/25 00:24:58;;;;;;;18.02;6.65;;;;;;;-0.28;100.00;95833.94;1027041;28;20035;-70
2022/11/25 00:25:29;;;;;;;14.30;6.43;;;;;;;-0.31;100.00;95829.19;1027681;28;20039;-69
2022/11/25 00:26:13;;;;;;;11.30;6.18;;;;;;;-0.32;100.00;95830.97;1035290;28;20517;-69
2022/11/25 00:26:43;;;;;;;16.98;6.08;;;;;;;-0.38;100.00;95820.63;1035366;28;20026;-70
2022/11/25 00:27:14;;;;;;;16.13;6.10;;;;;;;-0.32;100.00;95833.53;1031017;28;20031;-71
2022/11/25 00:27:44;;;;;;;10.27;5.82;;;;;;;-0.31;100.00;95827.38;1031216;28;20034;-70
2022/11/25 00:28:16;;;;;;;12.00;6.80;;;;;;;-0.40;100.00;95820.00;1031631;28;20122;-69
2022/11/25 00:28:46;;;;;;;10.84;5.66;;;;;;;-0.40;100.00;95818.25;1031043;28;20757;-70
2022/11/25 00:29:17;;;;;;;12.70;5.90;;;;;;;-0.33;100.00;95823.44;1031160;28;20023;-68
2022/11/25 00:29:47;;;;;;;14.27;6.05;;;;;;;-0.32;100.00;95828.38;1039122;28;20040;-69
2022/11/25 00:30:18;;;;;;;11.70;5.28;;;;;;;-0.35;100.00;95831.34;1039720;28;20029;-70
2022/11/25 00:30:48;;;;;;;11.48;5.90;;;;;;;-0.34;100.00;95825.19;1043438;28;20013;-70
2022/11/25 00:31:22;;;;;;;12.23;5.93;;;;;;;-0.36;100.00;95827.19;1043742;28;20025;-70
2022/11/25 00:31:52;;;;;;;11.18;5.36;;;;;;;-0.37;100.00;95824.78;1043485;28;20021;-70
2022/11/25 00:32:23;;;;;;;13.98;6.15;;;;;;;-0.44;100.00;95822.16;1042933;28;20021;-70
2022/11/25 00:32:53;;;;;;;11.48;6.05;;;;;;;-0.41;100.00;95826.94;1043455;28;20013;-70
2022/11/25 00:33:24;;;;;;;9.02;5.47;;;;;;;-0.40;100.00;95833.72;1043336;28;20014;-70
2022/11/25 00:33:54;;;;;;;11.20;5.22;;;;;;;-0.40;100.00;95830.31;1042005;28;20526;-70
2022/11/25 00:34:25;;;;;;;14.82;5.57;;;;;;;-0.43;100.00;95828.94;1040942;28;20379;-70
2022/11/25 00:34:55;;;;;;;10.18;5.00;;;;;;;-0.48;100.00;95820.97;1038843;28;20152;-68
2022/11/25 00:35:26;;;;;;;10.98;5.13;;;;;;;-0.39;100.00;95835.31;1034829;28;20387;-70
2022/11/25 00:35:59;;;;;;;9.68;5.07;;;;;;;-0.40;100.00;95828.56;1034865;28;20014;-69
2022/11/25 00:36:31;;;;;;;11.90;4.96;;;;;;;-0.25;100.00;95831.00;1031126;28;20010;-69
2022/11/25 00:37:01;;;;;;;9.70;5.24;;;;;;;-0.14;100.00;95842.53;1032176;28;20027;-69
2022/11/25 00:37:32;;;;;;;10.77;5.82;;;;;;;-0.05;100.00;95836.22;1035235;28;20015;-69
2022/11/25 00:38:02;;;;;;;8.95;5.25;;;;;;;-0.03;100.00;95834.25;1031217;28;20077;-70
2022/11/25 00:38:33;;;;;;;13.30;6.15;;;;;;;-0.04;100.00;95832.66;1032198;28;20033;-70
2022/11/25 00:39:05;;;;;;;10.73;5.85;;;;;;;-0.05;100.00;95837.03;1035102;28;20247;-70
2022/11/25 00:39:36;;;;;;;9.54;5.56;;;;;;;-0.03;100.00;95836.84;1027406;28;20021;-69
2022/11/25 00:40:07;;;;;;;10.65;5.40;;;;;;;-0.10;100.00;95825.69;1030926;28;20484;-69
2022/11/25 00:40:37;;;;;;;12.45;5.55;;;;;;;0.01;100.00;95832.09;1027031;28;20026;-70
2022/11/25 00:44:45;;;;;;;12.34;5.44;;;;;;;0.04;100.00;95819.59;1030623;28;20087;-70
2022/11/25 00:45:15;;;;;;;9.55;4.63;;;;;;;0.06;100.00;95817.59;1030566;28;20089;-70
2022/11/25 00:45:45;;;;;;;9.02;5.35;;;;;;;0.06;100.00;95825.34;1035114;28;20022;-70
2022/11/25 00:46:16;;;;;;;10.35;5.63;;;;;;;0.04;100.00;95824.75;1033416;28;20210;-70
2022/11/25 00:46:46;;;;;;;11.55;5.03;;;;;;;0.03;100.00;95819.78;1032071;28;20045;-70
2022/11/25 00:47:18;;;;;;;10.73;5.07;;;;;;;0.02;100.00;95824.16;1034692;28;20029;-70
2022/11/25 00:47:48;;;;;;;7.90;4.08;;;;;;;0.02;100.00;95826.72;1035110;28;20037;-69
2022/11/25 00:48:19;;;;;;;10.88;4.55;;;;;;;0.00;100.00;95823.56;1037497;28;20021;-70
2022/11/25 00:48:49;;;;;;;7.30;4.60;;;;;;;0.06;100.00;95827.91;1038034;28;20064;-70
2022/11/25 00:49:20;;;;;;;6.85;4.50;;;;;;;0.01;100.00;95826.94;1039411;28;20024;-70
2022/11/25 00:49:52;;;;;;;9.38;5.03;;;;;;;0.01;100.00;95819.97;1039223;28;20475;-70
2022/11/25 00:50:22;;;;;;;9.30;4.64;;;;;;;0.03;100.00;95819.78;1032997;28;20057;-70
2022/11/25 00:50:53;;;;;;;8.50;4.88;;;;;;;0.07;100.00;95829.53;1026586;28;20050;-71
2022/11/25 00:51:23;;;;;;;7.22;4.30;;;;;;;0.04;100.00;95824.75;1027108;28;20026;-70
2022/11/25 00:51:54;;;;;;;8.88;4.05;;;;;;;0.04;100.00;95829.91;1026946;28;20018;-70
2022/11/25 00:52:25;;;;;;;7.97;4.30;;;;;;;0.03;100.00;95822.34;1030400;28;20019;-70
2022/11/25 00:52:55;;;;;;;9.35;4.63;;;;;;;0.03;100.00;95828.31;1035496;28;20018;-70
2022/11/25 00:53:26;;;;;;;11.88;4.47;;;;;;;0.06;100.00;95825.34;1036859;28;20249;-70
2022/11/25 00:53:56;;;;;;;9.57;5.35;;;;;;;0.04;100.00;95829.91;1043431;28;20020;-70
2022/11/25 00:54:26;;;;;;;7.35;3.97;;;;;;;0.13;100.00;95833.09;1043344;28;20067;-70
2022/11/25 00:54:57;;;;;;;8.25;4.97;;;;;;;0.09;100.00;95816.44;1038984;28;20558;-70
2022/11/25 00:56:11;;;;;;;7.53;4.07;;;;;;;0.16;100.00;95828.34;1032839;28;20388;-70
2022/11/25 00:56:18;;;;;;;8.48;4.28;;;;;;;0.18;100.00;95818.63;1035168;28;20061;-69
2022/11/25 00:56:49;;;;;;;6.63;4.05;;;;;;;0.17;100.00;95819.63;1039281;28;20024;-69
2022/11/25 00:57:20;;;;;;;13.43;5.25;;;;;;;0.14;100.00;95814.06;1035276;28;20026;-69
2022/11/25 00:57:51;;;;;;;9.46;4.14;;;;;;;0.16;100.00;95818.03;1031175;28;20258;-71
2022/11/25 00:58:21;;;;;;;5.30;3.88;;;;;;;0.17;100.00;95819.63;1031507;28;20022;-69
2022/11/25 00:58:52;;;;;;;11.10;4.18;;;;;;;0.20;100.00;95818.41;1032530;28;20026;-69
2022/11/25 00:59:22;;;;;;;6.38;3.88;;;;;;;0.18;100.00;95810.09;1034956;28;20024;-70
2022/11/25 00:59:53;;;;;;;7.13;3.67;;;;;;;0.22;100.00;95813.88;1035207;28;20018;-69
2022/11/25 01:00:23;;;;;;;7.40;3.58;;;;;;;0.22;100.00;95822.41;1041640;28;20086;-70
2022/11/25 01:00:53;;;;;;;6.50;4.18;;;;;;;0.20;100.00;95819.25;1043348;28;20063;-70
2022/11/25 01:01:24;;;;;;;5.90;3.65;;;;;;;0.17;100.00;95806.72;1047737;28;20020;-70
2022/11/25 01:01:55;;;;;;;6.30;3.78;;;;;;;0.26;100.00;95817.66;1036372;28;20014;-70
2022/11/25 01:02:25;;;;;;;6.07;3.30;;;;;;;0.25;100.00;95815.28;1038385;28;20499;-68
2022/11/25 01:02:56;;;;;;;6.72;3.72;;;;;;;0.25;100.00;95816.06;1038850;28;20507;-70
2022/11/25 01:03:26;;;;;;;7.55;3.65;;;;;;;0.28;100.00;95820.84;1039290;28;20039;-70
2022/11/25 01:03:56;;;;;;;8.25;3.72;;;;;;;0.29;100.00;95819.84;1043419;28;20479;-70
2022/11/25 01:04:27;;;;;;;9.23;3.13;;;;;;;0.23;100.00;95813.69;1039156;28;20103;-70
2022/11/25 01:04:57;;;;;;;10.18;3.35;;;;;;;0.24;100.00;95819.66;1035044;28;20062;-70
2022/11/25 01:05:28;;;;;;;5.80;3.35;;;;;;;0.21;100.00;95815.66;1027192;28;20034;-70
2022/11/25 01:06:06;;;;;;;8.75;3.40;;;;;;;0.16;100.00;95812.84;1031155;28;20026;-70
2022/11/25 01:06:36;;;;;;;9.96;3.46;;;;;;;0.09;100.00;95812.06;1020505;29;20805;-69
2022/11/25 01:07:07;;;;;;;10.60;3.53;;;;;;;0.13;100.00;95815.81;1024947;28;20122;-70
2022/11/25 01:07:37;;;;;;;7.00;3.90;;;;;;;0.11;100.00;95815.25;1023282;28;20413;-70
2022/11/25 01:08:08;;;;;;;5.88;3.60;;;;;;;0.08;100.00;95818.22;1023448;28;20054;-70
2022/11/25 01:08:38;;;;;;;8.52;4.00;;;;;;;0.06;100.00;95820.19;1027826;28;20080;-70
2022/11/25 01:09:09;;;;;;;7.55;4.60;;;;;;;0.05;100.00;95818.59;1037295;28;20030;-70
2022/11/25 01:09:40;;;;;;;8.96;4.26;;;;;;;0.04;100.00;95816.22;1030953;28;20018;-70
2022/11/25 01:10:10;;;;;;;9.65;4.22;;;;;;;-0.02;100.00;95810.06;1034906;28;20435;-70
2022/11/25 01:10:41;;;;;;;7.68;3.90;;;;;;;0.02;100.00;95821.56;1035287;28;20423;-70
2022/11/25 01:11:12;;;;;;;9.40;4.18;;;;;;;0.00;100.00;95818.41;1039108;28;20152;-70
2022/11/25 01:11:43;;;;;;;10.04;4.18;;;;;;;-0.11;100.00;95800.88;1035092;28;20061;-70
2022/11/25 01:12:13;;;;;;;8.27;4.10;;;;;;;-0.03;100.00;95819.56;1030840;28;20496;-70
2022/11/25 01:12:46;;;;;;;7.88;4.10;;;;;;;-0.05;100.00;95820.75;1026500;28;20023;-70
2022/11/25 01:13:16;;;;;;;7.40;4.04;;;;;;;-0.05;100.00;95820.75;1031112;28;20558;-70
2022/11/25 01:13:47;;;;;;;5.88;3.83;;;;;;;-0.07;100.00;95818.38;1034348;28;20084;-70
2022/11/25 01:14:18;;;;;;;10.65;3.70;;;;;;;-0.13;100.00;95813.19;1034209;28;20068;-70
2022/11/25 01:14:48;;;;;;;10.34;3.98;;;;;;;-0.11;100.00;95818.94;1027608;28;20080;-70
2022/11/25 01:15:19;;;;;;;11.68;4.60;;;;;;;-0.15;100.00;95820.31;1035046;28;20038;-69
2022/11/25 01:15:49;;;;;;;9.13;3.90;;;;;;;-0.15;100.00;95821.13;1035110;28;20025;-71
2022/11/25 01:16:20;;;;;;;12.10;4.07;;;;;;;-0.14;100.00;95814.16;1039580;28;20032;-70
2022/11/25 01:16:50;;;;;;;10.77;4.07;;;;;;;-0.15;100.00;95815.97;1043362;28;20446;-70
2022/11/25 01:17:21;;;;;;;9.77;3.88;;;;;;;-0.11;100.00;95824.09;1035228;28;20025;-70
2022/11/25 01:17:51;;;;;;;8.73;4.10;;;;;;;-0.11;100.00;95821.53;1030906;28;20084;-70
2022/11/25 01:18:22;;;;;;;8.43;3.80;;;;;;;-0.11;100.00;95814.56;1031191;28;20030;-69
2022/11/25 01:18:52;;;;;;;12.30;4.25;;;;;;;-0.10;100.00;95825.69;1026996;28;20113;-70
2022/11/25 01:19:23;;;;;;;8.02;3.63;;;;;;;-0.13;100.00;95821.72;1027042;28;20022;-70
2022/11/25 01:19:53;;;;;;;8.57;4.70;;;;;;;-0.12;100.00;95825.09;1035092;28;20018;-70
2022/11/25 01:20:24;;;;;;;9.95;4.57;;;;;;;-0.13;100.00;95823.50;1032553;28;20026;-70
2022/11/25 01:20:54;;;;;;;7.95;4.03;;;;;;;-0.14;100.00;95827.06;1039093;28;20029;-70
2022/11/25 01:21:27;;;;;;;8.43;4.43;;;;;;;-0.14;100.00;95830.44;1031361;28;20042;-70
2022/11/25 01:21:57;;;;;;;13.08;5.56;;;;;;;-0.18;100.00;95813.75;1031786;28;20554;-69
2022/11/25 01:22:28;;;;;;;9.70;5.35;;;;;;;-0.14;100.00;95829.63;1030545;28;20030;-70
2022/11/25 01:22:58;;;;;;;10.43;4.95;;;;;;;-0.13;100.00;95824.31;1030455;28;20045;-69
2022/11/25 01:23:28;;;;;;;6.95;4.10;;;;;;;-0.13;100.00;95824.31;1030403;28;20030;-70
2022/11/25 01:24:00;;;;;;;7.20;4.25;;;;;;;-0.12;100.00;95825.09;1036371;28;20026;-70
2022/11/25 01:24:30;;;;;;;13.46;4.68;;;;;;;-0.11;100.00;95827.47;1039725;28;20029;-70
2022/11/25 01:25:01;;;;;;;6.10;3.97;;;;;;;-0.11;100.00;95821.53;1035044;28;20468;-70
2022/11/25 01:25:35;;;;;;;20.45;5.38;;;;;;;-0.11;100.00;95821.53;1035187;28;20030;-70
2022/11/25 01:26:10;;;;;;;8.12;4.90;;;;;;;-0.11;100.00;95826.69;1029278;28;20379;-70
2022/11/25 01:26:40;;;;;;;10.16;4.68;;;;;;;-0.14;100.00;95833.00;1032534;28;20027;-70
2022/11/25 01:27:11;;;;;;;10.05;4.40;;;;;;;-0.12;100.00;95823.31;1027472;28;20572;-70
2022/11/25 01:27:41;;;;;;;11.32;4.45;;;;;;;-0.13;100.00;95828.66;1031174;28;20033;-70
2022/11/25 01:28:12;;;;;;;9.05;4.43;;;;;;;-0.14;100.00;95832.22;1031496;28;20073;-70
2022/11/25 01:28:43;;;;;;;8.48;4.70;;;;;;;-0.16;100.00;95829.84;1036228;28;20036;-70
2022/11/25 01:29:15;;;;;;;10.43;4.80;;;;;;;-0.24;100.00;95817.91;1039521;28;20032;-71
2022/11/25 01:29:46;;;;;;;20.20;4.88;;;;;;;-0.18;100.00;95831.81;1031715;28;20018;-70
2022/11/25 01:30:16;;;;;;;11.15;5.10;;;;;;;-0.20;100.00;95831.22;1027797;28;20448;-70
2022/11/25 01:30:50;;;;;;;12.15;5.00;;;;;;;-0.18;100.00;95831.03;1024240;28;20397;-70
2022/11/25 01:31:21;;;;;;;8.66;5.22;;;;;;;-0.21;100.00;95829.63;1027184;28;20086;-70
2022/11/25 01:31:53;;;;;;;10.32;5.38;;;;;;;-0.19;100.00;95832.03;1031360;28;20564;-70
2022/11/25 01:32:24;;;;;;;11.34;4.70;;;;;;;-0.26;100.00;95819.88;1028866;28;20828;-70
2022/11/25 01:32:54;;;;;;;10.38;5.95;;;;;;;-0.23;100.00;95834.19;1031798;28;20114;-70
2022/11/25 01:33:25;;;;;;;8.38;5.00;;;;;;;-0.22;100.00;95840.13;1035433;28;20072;-70
2022/11/25 01:33:57;;;;;;;11.23;6.53;;;;;;;-0.22;100.00;95834.97;1035928;28;20029;-69
2022/11/25 01:34:30;;;;;;;7.28;4.96;;;;;;;-0.21;100.00;95823.66;1039503;28;20092;-68
2022/11/25 01:35:01;;;;;;;9.24;4.72;;;;;;;-0.20;100.00;95832.97;1035514;28;20037;-70
2022/11/25 01:35:31;;;;;;;9.98;5.07;;;;;;;-0.26;100.00;95825.03;1035607;28;20026;-70
2022/11/25 01:36:09;;;;;;;8.30;4.18;;;;;;;-0.21;100.00;95826.25;1031630;28;20100;-70
2022/11/25 01:36:39;;;;;;;13.32;5.08;;;;;;;-0.18;100.00;95825.88;1027868;28;20034;-70
2022/11/25 01:37:10;;;;;;;10.07;5.72;;;;;;;-0.18;100.00;95825.88;1027468;28;20033;-70
2022/11/25 01:37:41;;;;;;;10.04;4.52;;;;;;;-0.16;100.00;95829.06;1028647;28;20054;-70
2022/11/25 01:38:11;;;;;;;10.45;5.03;;;;;;;-0.17;100.00;95824.88;1032793;28;20396;-70
2022/11/25 01:38:42;;;;;;;10.70;5.20;;;;;;;-0.19;100.00;95819.91;1035363;28;20450;-71
2022/11/25 01:39:18;;;;;;;8.72;5.44;;;;;;;-0.19;100.00;95824.28;1031608;28;20029;-70
2022/11/25 01:39:48;;;;;;;11.16;5.04;;;;;;;-0.19;100.00;95824.28;1027346;28;20027;-70
2022/11/25 01:40:18;;;;;;;12.48;5.20;;;;;;;-0.20;100.00;95820.09;1029891;28;20038;-69
2022/11/25 01:40:49;;;;;;;9.57;5.57;;;;;;;-0.22;100.00;95822.88;1033686;28;20019;-70
2022/11/25 01:41:20;;;;;;;12.27;5.90;;;;;;;-0.20;100.00;95822.66;1043547;28;20025;-70
2022/11/25 01:41:50;;;;;;;9.15;5.32;;;;;;;-0.23;100.00;95823.88;1039343;28;20022;-70
2022/11/25 01:42:21;;;;;;;12.13;5.43;;;;;;;-0.24;100.00;95820.47;1039082;28;20052;-70
2022/11/25 01:42:51;;;;;;;11.50;5.40;;;;;;;-0.26;100.00;95822.47;1039320;28;20017;-70
2022/11/25 01:43:21;;;;;;;8.35;4.35;;;;;;;-0.28;100.00;95816.69;1035629;28;20026;-70
2022/11/25 01:44:11;;;;;;;8.73;4.30;;;;;;;-0.24;100.00;95825.63;1035358;28;20025;-70
2022/11/25 01:44:42;;;;;;;6.12;3.84;;;;;;;-0.20;100.00;95820.91;1035596;28;20029;-70
2022/11/25 01:45:21;;;;;;;7.75;4.13;;;;;;;-0.14;100.00;95814.97;1037832;28;20327;-70
2022/11/25 01:45:53;;;;;;;8.38;4.46;;;;;;;-0.12;100.00;95814.78;1039605;28;20025;-70
2022/11/25 01:46:25;;;;;;;7.26;4.20;;;;;;;-0.13;100.00;95813.19;1031649;28;20025;-70
2022/11/25 01:47:04;;;;;;;8.76;3.90;;;;;;;-0.08;100.00;95810.81;1024437;28;20485;-70
2022/11/25 01:47:35;;;;;;;9.52;4.65;;;;;;;-0.05;100.00;95815.59;1027509;28;20013;-70
2022/11/25 01:48:30;;;;;;;10.95;4.85;;;;;;;-0.06;100.00;95812.22;1035337;28;20037;-70
2022/11/25 01:49:02;;;;;;;15.06;4.88;;;;;;;-0.07;100.00;95818.38;1043411;28;20047;-70
2022/11/25 01:49:42;;;;;;;11.48;5.04;;;;;;;-0.06;100.00;95819.16;1039463;28;20022;-69
2022/11/25 01:50:12;;;;;;;8.68;4.36;;;;;;;-0.09;100.00;95812.59;1031311;28;20026;-70
2022/11/25 01:50:43;;;;;;;8.65;4.38;;;;;;;-0.08;100.00;95815.97;1023111;28;20035;-72
2022/11/25 01:51:41;;;;;;;7.60;4.57;;;;;;;-0.11;100.00;95816.38;1023049;29;20042;-70
2022/11/25 01:52:17;;;;;;;9.86;5.20;;;;;;;-0.14;100.00;95814.16;1028481;28;20042;-68
2022/11/25 01:52:48;;;;;;;9.98;5.30;;;;;;;-0.19;100.00;95814.75;1031274;28;20037;-69
2022/11/25 01:53:19;;;;;;;9.08;4.82;;;;;;;-0.17;100.00;95817.91;1027160;28;20509;-69
2022/11/25 01:53:49;;;;;;;7.12;4.60;;;;;;;-0.25;100.00;95805.22;1023161;29;20027;-70
2022/11/25 01:54:22;;;;;;;11.02;4.50;;;;;;;-0.21;100.00;95808.19;1023202;29;20026;-69
2022/11/25 01:55:04;;;;;;;8.72;4.66;;;;;;;-0.20;100.00;95812.34;1019047;29;20035;-69
2022/11/25 01:55:34;;;;;;;8.86;4.24;;;;;;;-0.18;100.00;95810.38;1021601;29;20533;-70
2022/11/25 01:56:05;;;;;;;8.75;4.65;;;;;;;-0.17;100.00;95809.41;1027102;28;20069;-70
2022/11/25 01:56:40;;;;;;;9.23;4.70;;;;;;;-0.20;100.00;95812.34;1027347;28;20504;-69
2022/11/25 01:57:13;;;;;;;8.30;5.04;;;;;;;-0.18;100.00;95811.19;1023274;29;20029;-69
2022/11/25 01:57:45;;;;;;;8.94;4.48;;;;;;;-0.18;100.00;95812.97;1019298;29;20111;-70
2022/11/25 01:58:17;;;;;;;7.16;4.38;;;;;;;-0.19;100.00;95803.66;1021892;28;20462;-69
2022/11/25 01:58:48;;;;;;;7.92;4.20;;;;;;;-0.17;100.00;95814.56;1025271;28;20027;-69
2022/11/25 01:59:18;;;;;;;7.32;4.45;;;;;;;-0.18;100.00;95815.56;1027777;28;20131;-69
2022/11/25 01:59:49;;;;;;;9.50;4.53;;;;;;;-0.17;100.00;95817.13;1023713;28;20486;-70
2022/11/25 02:00:23;;;;;;;7.42;4.16;;;;;;;-0.21;100.00;95803.03;1019816;28;20482;-69
2022/11/25 02:00:53;;;;;;;8.73;4.50;;;;;;;-0.13;100.00;95808.03;1027785;28;20130;-69
2022/11/25 02:01:24;;;;;;;5.95;3.70;;;;;;;-0.14;100.00;95814.97;1027963;28;20030;-69
2022/11/25 02:01:55;;;;;;;11.25;4.32;;;;;;;-0.14;100.00;95806.44;1024243;28;20025;-69
2022/11/25 02:02:25;;;;;;;9.98;3.92;;;;;;;-0.12;100.00;95809.63;1025365;28;20081;-69
2022/11/25 02:02:55;;;;;;;6.57;4.03;;;;;;;-0.15;100.00;95810.00;1027259;28;20023;-69
2022/11/25 02:03:33;;;;;;;8.57;4.15;;;;;;;-0.14;100.00;95809.81;1023170;28;20019;-69
2022/11/25 02:04:03;;;;;;;6.56;3.94;;;;;;;-0.13;100.00;95805.47;1027848;28;20030;-70
2022/11/25 02:04:34;;;;;;;8.23;4.28;;;;;;;-0.12;100.00;95809.63;1027014;28;20113;-70
2022/11/25 02:05:09;;;;;;;8.05;4.10;;;;;;;-0.11;100.00;95811.22;1024425;28;20626;-70
2022/11/25 02:05:45;;;;;;;8.14;3.72;;;;;;;-0.11;100.00;95812.00;1021320;28;20118;-70
2022/11/25 02:06:51;;;;;;;7.60;3.54;;;;;;;-0.08;100.00;95810.81;1027299;28;20050;-69
2022/11/25 02:07:29;;;;;;;7.14;3.62;;;;;;;-0.09;100.00;95809.25;1026344;28;20467;-70
2022/11/25 02:08:00;;;;;;;11.14;3.78;;;;;;;-0.14;100.00;95806.44;1028661;28;20106;-70
2022/11/25 02:08:30;;;;;;;9.25;4.40;;;;;;;-0.10;100.00;95818.75;1026748;28;20033;-69
2022/11/25 02:09:04;;;;;;;7.75;4.18;;;;;;;-0.10;100.00;95812.78;1030822;28;20026;-69
2022/11/25 02:09:36;;;;;;;10.56;4.06;;;;;;;-0.12;100.00;95815.56;1030510;28;20145;-69
2022/11/25 02:10:10;;;;;;;7.22;4.02;;;;;;;-0.13;100.00;95813.19;1028810;28;20097;-69
2022/11/25 02:10:40;;;;;;;6.24;3.66;;;;;;;-0.13;100.00;95818.34;1027086;28;20040;-69
2022/11/25 02:11:11;;;;;;;6.57;3.67;;;;;;;-0.22;100.00;95809.19;1030901;28;20022;-69
2022/11/25 02:11:41;;;;;;;8.82;3.60;;;;;;;-0.13;100.00;95819.16;1026931;28;20031;-70
2022/11/25 02:12:12;;;;;;;15.80;3.78;;;;;;;-0.13;100.00;95819.16;1026858;28;20061;-68
2022/11/25 02:12:43;;;;;;;7.15;3.13;;;;;;;-0.12;100.00;95819.94;1026749;28;20023;-70
2022/11/25 02:13:13;;;;;;;9.32;3.66;;;;;;;-0.10;100.00;95823.91;1023111;29;20031;-69
2022/11/25 02:13:45;;;;;;;10.18;3.40;;;;;;;-0.11;100.00;95817.16;1031082;28;20436;-70
2022/11/25 02:14:15;;;;;;;5.16;3.04;;;;;;;-0.05;100.00;95815.59;1029039;28;20038;-69
2022/11/25 02:14:47;;;;;;;6.70;2.72;;;;;;;-0.04;100.00;95822.34;1027371;28;20449;-69
2022/11/25 02:15:18;;;;;;;5.44;3.00;;;;;;;0.03;100.00;95822.34;1023130;29;20521;-70
2022/11/25 02:15:49;;;;;;;6.97;2.83;;;;;;;0.03;100.00;95827.50;1023891;28;20374;-69
2022/11/25 02:16:19;;;;;;;5.82;3.05;;;;;;;0.05;100.00;95821.19;1027894;28;20003;-70
2022/11/25 02:16:49;;;;;;;3.85;2.30;;;;;;;0.06;100.00;95811.66;1031589;28;20022;-70
2022/11/25 02:17:20;;;;;;;6.10;2.78;;;;;;;0.10;100.00;95823.97;1035247;28;20025;-69
2022/11/25 02:17:50;;;;;;;5.53;2.95;;;;;;;0.11;100.00;95820.41;1031519;28;20483;-69
2022/11/25 02:18:21;;;;;;;4.10;2.95;;;;;;;0.12;100.00;95822.00;1035398;28;20021;-70
2022/11/25 02:18:51;;;;;;;5.85;3.03;;;;;;;0.13;100.00;95823.56;1031372;28;20472;-69
2022/11/25 02:19:23;;;;;;;5.28;2.72;;;;;;;0.16;100.00;95812.06;1029229;28;20361;-69
2022/11/25 02:20:13;;;;;;;4.80;2.86;;;;;;;0.20;100.00;95819.25;1028530;28;20094;-69
2022/11/25 02:20:44;;;;;;;7.68;2.95;;;;;;;0.18;100.00;95810.88;1030024;28;20125;-70
2022/11/25 02:21:16;;;;;;;5.45;2.72;;;;;;;0.22;100.00;95817.25;1030507;28;20056;-69
2022/11/25 02:21:50;;;;;;;5.60;2.72;;;;;;;0.24;100.00;95824.81;1030880;28;20060;-70
2022/11/25 02:22:44;;;;;;;4.42;2.68;;;;;;;0.25;100.00;95817.84;1026260;28;20057;-71
2022/11/25 02:23:35;;;;;;;6.74;3.24;;;;;;;0.30;100.00;95820.63;1030955;28;20034;-70
2022/11/25 02:24:28;;;;;;;3.58;2.40;;;;;;;0.30;100.00;95818.03;1039512;28;20113;-70
2022/11/25 02:25:07;;;;;;;5.96;3.04;;;;;;;0.28;100.00;95822.63;1039286;28;20084;-69
2022/11/25 02:25:39;;;;;;;5.92;3.06;;;;;;;0.26;100.00;95822.81;1032846;28;20022;-69
2022/11/25 02:26:09;;;;;;;5.88;2.68;;;;;;;0.21;100.00;95813.09;1034810;28;20566;-70
2022/11/25 02:26:40;;;;;;;3.53;2.30;;;;;;;0.16;100.00;95815.44;1031846;28;20055;-69
2022/11/25 02:27:10;;;;;;;4.75;3.08;;;;;;;0.17;100.00;95819.63;1025716;28;20058;-68
2022/11/25 02:27:42;;;;;;;5.38;2.60;;;;;;;0.16;100.00;95818.03;1020589;28;20023;-69
2022/11/25 02:28:17;;;;;;;5.68;3.12;;;;;;;0.18;100.00;95821.22;1025705;28;20026;-69
2022/11/25 02:28:47;;;;;;;6.72;3.10;;;;;;;0.17;100.00;95818.84;1026254;28;20114;-68
2022/11/25 02:29:18;;;;;;;5.78;3.00;;;;;;;0.17;100.00;95829.94;1026543;28;20034;-70
2022/11/25 02:29:49;;;;;;;6.03;2.78;;;;;;;0.14;100.00;95817.44;1022004;29;20027;-67
2022/11/25 02:30:19;;;;;;;4.57;2.28;;;;;;;0.12;100.00;95809.09;1024945;28;20266;-69
2022/11/25 02:30:50;;;;;;;3.97;2.55;;;;;;;0.15;100.00;95821.59;1022507;28;20019;-69
2022/11/25 02:31:21;;;;;;;5.50;3.38;;;;;;;0.15;100.00;95811.28;1022472;28;20037;-70
2022/11/25 02:31:51;;;;;;;4.05;3.05;;;;;;;0.14;100.00;95819.22;1022320;28;20084;-70
2022/11/25 02:32:22;;;;;;;3.47;2.90;;;;;;;0.11;100.00;95820.41;1022016;28;20023;-70
2022/11/25 02:32:52;;;;;;;4.82;3.10;;;;;;;0.11;100.00;95817.81;1026614;28;20044;-69